Time;durP1;ratioP1;P1;durP2;ratioP2;P2;SDS_P1;SDS_P2;PMS_P1;PMS_P2;Temp;Humidity;BMP_temperature;BMP_pressure;BME280_temperature;BME280_humidity;BME280_pressure;Samples;Min_cycle;Max_cycle;Signal;HPM_P1;HPM_P2
2022/01/13 00:01:41;;;;;;;;;24.25;17.75;;;;;5.68;71.14;103631.34;5028658;28;45959;-81
2022/01/13 00:04:10;;;;;;;;;29.50;19.75;;;;;5.64;70.62;103621.63;5051253;28;45527;-82
2022/01/13 00:06:40;;;;;;;;;19.25;18.75;;;;;5.59;70.69;103640.13;5041602;28;45394;-81
2022/01/13 00:09:07;;;;;;;;;25.25;20.00;;;;;5.54;71.26;103631.41;5058009;28;45630;-81
2022/01/13 00:11:32;;;;;;;;;25.75;17.25;;;;;5.50;71.27;103628.03;5054057;28;45985;-80
2022/01/13 00:19:34;;;;;;;;;23.67;21.67;;;;;5.48;71.93;103625.41;5054416;28;45754;-80
2022/01/13 00:22:15;;;;;;;;;24.25;19.50;;;;;5.39;71.66;103606.97;5052952;28;46155;-82
2022/01/13 00:24:44;;;;;;;;;22.00;16.33;;;;;5.43;71.41;103613.06;5053952;28;45732;-80
2022/01/13 00:27:12;;;;;;;;;25.00;20.00;;;;;5.48;71.79;103621.81;5053611;28;45740;-80
2022/01/13 00:29:41;;;;;;;;;22.00;18.25;;;;;5.48;71.54;103617.25;5053476;28;45359;-78
2022/01/13 00:32:08;;;;;;;;;23.00;20.00;;;;;5.37;71.25;103608.91;5036769;28;46930;-81
2022/01/13 00:34:33;;;;;;;;;25.75;21.25;;;;;5.44;71.54;103620.28;5053317;28;45459;-82
2022/01/13 00:36:59;;;;;;;;;24.25;16.25;;;;;5.44;72.24;103612.97;5054110;28;45662;-81
2022/01/13 00:39:25;;;;;;;;;23.50;19.00;;;;;5.42;72.21;103595.88;5053979;28;45513;-81
2022/01/13 00:41:51;;;;;;;;;23.00;17.67;;;;;5.57;72.27;103621.19;5055461;28;46041;-81
2022/01/13 00:44:20;;;;;;;;;22.00;19.00;;;;;5.55;71.71;103617.69;5030467;28;45733;-83
2022/01/13 00:46:55;;;;;;;;;15.25;15.25;;;;;5.57;71.34;103615.75;5033823;28;45897;-79
2022/01/13 00:49:20;;;;;;;;;25.00;17.00;;;;;5.61;72.51;103616.38;5014362;28;46296;-80
2022/01/13 00:51:46;;;;;;;;;19.00;15.67;;;;;5.63;71.50;103611.72;5051513;28;46049;-79
2022/01/13 00:54:12;;;;;;;;;19.00;17.67;;;;;5.58;71.41;103606.56;5053643;28;45789;-80
2022/01/13 00:56:38;;;;;;;;;16.67;15.33;;;;;5.50;71.20;103599.94;5035058;28;45726;-79
2022/01/13 00:59:07;;;;;;;;;16.33;14.33;;;;;5.58;71.29;103622.03;5035585;28;45486;-80
2022/01/13 01:01:40;;;;;;;;;16.67;13.33;;;;;5.47;71.50;103599.16;5016530;28;46240;-80
2022/01/13 01:04:06;;;;;;;;;27.33;15.67;;;;;5.57;71.51;103623.00;5032210;28;45791;-81
2022/01/13 01:06:33;;;;;;;;;15.33;10.33;;;;;5.55;71.53;103605.94;5034101;28;45477;-79
2022/01/13 01:08:59;;;;;;;;;27.33;17.00;;;;;5.58;71.24;103617.47;5034366;28;45996;-80
2022/01/13 01:11:26;;;;;;;;;12.67;10.67;;;;;5.58;71.12;103608.44;5042036;28;45841;-79
2022/01/13 01:13:55;;;;;;;;;20.75;15.25;;;;;5.65;71.08;103617.94;5052884;28;45492;-80
2022/01/13 01:16:22;;;;;;;;;14.33;8.33;;;;;5.70;71.42;103609.44;5037192;28;45470;-81
2022/01/13 01:18:54;;;;;;;;;16.00;12.33;;;;;5.74;71.35;103609.13;5051873;28;45728;-81
2022/01/13 01:21:36;;;;;;;;;13.67;11.67;;;;;5.75;70.94;103619.03;5051032;28;45978;-81
2022/01/13 01:26:52;;;;;;;;;18.67;11.67;;;;;5.69;70.79;103615.84;5051800;28;45752;-80
2022/01/13 01:29:27;;;;;;;;;17.67;10.67;;;;;5.59;70.37;103602.03;5054170;28;45782;-80
2022/01/13 01:31:55;;;;;;;;;13.67;11.67;;;;;5.60;71.05;103606.50;5033415;28;46636;-80
2022/01/13 01:36:53;;;;;;;;;14.67;11.67;;;;;5.51;70.10;103605.28;5051826;28;45676;-80
2022/01/13 01:39:18;;;;;;;;;8.00;4.00;;;;;5.40;70.69;103605.13;5051738;28;45873;-79
2022/01/13 01:41:46;;;;;;;;;14.67;10.33;;;;;5.43;70.58;103613.06;5029581;28;48128;-81
2022/01/13 01:44:34;;;;;;;;;12.00;11.33;;;;;5.38;71.10;103616.13;5031520;28;45741;-81
2022/01/13 01:47:01;;;;;;;;;17.67;11.00;;;;;5.35;70.96;103616.31;5033180;28;45387;-79
2022/01/13 01:49:28;;;;;;;;;9.33;8.67;;;;;5.35;71.20;103616.31;5033812;28;45685;-78
2022/01/13 01:51:56;;;;;;;;;14.00;10.00;;;;;5.32;71.67;103621.09;5034310;28;45759;-79
2022/01/13 01:54:22;;;;;;;;;14.67;11.67;;;;;5.30;71.74;103624.78;5035188;28;45965;-79
2022/01/13 01:56:48;;;;;;;;;9.00;8.67;;;;;5.27;70.66;103621.41;5054257;28;45447;-79
2022/01/13 01:59:18;;;;;;;;;11.00;9.00;;;;;5.24;71.32;103625.22;5036448;28;46163;-80
2022/01/13 02:01:45;;;;;;;;;17.00;11.00;;;;;5.21;71.76;103630.84;5054090;28;45418;-79
2022/01/13 02:04:11;;;;;;;;;18.33;10.33;;;;;5.16;71.65;103633.00;5052668;28;45772;-80
2022/01/13 02:06:38;;;;;;;;;7.00;7.00;;;;;5.18;71.97;103624.72;5054676;28;45494;-80
2022/01/13 02:09:07;;;;;;;;;14.67;9.00;;;;;5.17;71.69;103631.16;5052191;28;45364;-79
2022/01/13 02:11:41;;;;;;;;;9.67;8.67;;;;;5.17;71.50;103621.16;5053200;28;45810;-79
2022/01/13 02:14:21;;;;;;;;;13.33;11.67;;;;;5.18;72.37;103630.16;5035021;28;45619;-80
2022/01/13 02:16:50;;;;;;;;;13.00;10.00;;;;;5.07;71.68;103610.00;5037290;28;45967;-80
2022/01/13 02:19:17;;;;;;;;;9.00;8.00;;;;;5.15;71.21;103633.09;5016020;28;46861;-81
2022/01/13 02:21:42;;;;;;;;;12.00;8.67;;;;;5.10;71.70;103634.31;5032964;28;46791;-81
2022/01/13 02:24:08;;;;;;;;;8.67;8.67;;;;;5.01;70.88;103634.88;5016131;28;45286;-82
2022/01/13 02:26:33;;;;;;;;;10.00;9.00;;;;;4.99;71.63;103645.00;5037222;28;45337;-81
2022/01/13 02:28:59;;;;;;;;;12.00;10.00;;;;;4.94;71.27;103644.44;5040933;28;45724;-79
2022/01/13 02:31:26;;;;;;;;;8.67;8.67;;;;;4.92;72.60;103635.50;5039232;28;47203;-82
2022/01/13 02:33:53;;;;;;;;;8.00;8.00;;;;;4.89;72.42;103638.41;5036017;28;45482;-79
2022/01/13 02:36:20;;;;;;;;;11.67;9.33;;;;;4.84;71.84;103616.97;5058443;28;45457;-79
2022/01/13 02:38:54;;;;;;;;;19.00;13.33;;;;;4.85;72.40;103623.25;5038334;28;46912;-79
2022/01/13 02:41:23;;;;;;;;;11.00;8.67;;;;;4.86;72.20;103608.69;5053969;28;45560;-81
2022/01/13 02:43:50;;;;;;;;;11.33;11.33;;;;;4.85;72.42;103617.81;5054224;28;45339;-81
2022/01/13 02:49:04;;;;;;;;;14.50;10.00;;;;;4.86;72.81;103619.56;5052191;28;45816;-79
2022/01/13 02:51:30;;;;;;;;;13.50;11.00;;;;;4.78;72.92;103612.78;5039213;28;46992;-82
2022/01/13 02:53:55;;;;;;;;;10.00;7.67;;;;;4.88;73.17;103617.63;5038001;28;45735;-83
2022/01/13 02:56:21;;;;;;;;;19.00;13.00;;;;;4.88;72.66;103617.63;5030030;28;45612;-82
2022/01/13 02:58:46;;;;;;;;;16.25;8.75;;;;;4.83;72.05;103620.63;5047554;28;46072;-81
2022/01/13 03:01:19;;;;;;;;;15.25;12.00;;;;;4.90;72.55;103621.13;5025385;28;47169;-82
2022/01/13 03:03:47;;;;;;;;;14.25;11.00;;;;;4.83;72.49;103604.31;5037194;28;45810;-77
2022/01/13 03:06:15;;;;;;;;;14.00;10.75;;;;;4.91;73.25;103607.44;5032030;28;45427;-80
2022/01/13 03:08:46;;;;;;;;;14.33;10.67;;;;;4.97;73.14;103614.31;5024909;28;46042;-82
2022/01/13 03:11:13;;;;;;;;;9.67;8.00;;;;;5.09;72.85;103616.22;5031705;28;46832;-81
2022/01/13 03:13:38;;;;;;;;;14.75;11.00;;;;;5.16;72.95;103613.09;5031375;28;45656;-80
2022/01/13 03:16:14;;;;;;;;;15.33;11.67;;;;;5.20;72.69;103620.94;5031356;28;45353;-78
2022/01/13 03:18:40;;;;;;;;;11.00;11.00;;;;;5.21;72.20;103609.09;5012799;28;46134;-80
2022/01/13 03:21:07;;;;;;;;;7.33;7.00;;;;;5.21;72.11;103622.69;5038216;28;46164;-76
2022/01/13 03:23:34;;;;;;;;;17.00;14.33;;;;;5.14;72.29;103607.75;5037595;28;45767;-79
2022/01/13 03:26:00;;;;;;;;;14.00;12.00;;;;;5.10;71.98;103617.97;5036261;28;45485;-80
2022/01/13 03:28:39;;;;;;;;;9.67;9.67;;;;;5.03;72.02;103605.75;5034994;28;46277;-85
2022/01/13 03:31:06;;;;;;;;;12.33;9.33;;;;;5.05;71.37;103614.66;5035701;28;45311;-82
2022/01/13 03:33:32;;;;;;;;;14.33;14.33;;;;;5.06;71.23;103612.81;5016145;28;45708;-82
2022/01/13 03:35:59;;;;;;;;;13.50;12.25;;;;;5.04;71.34;103622.94;5025348;28;45496;-80
2022/01/13 03:38:26;;;;;;;;;13.33;10.67;;;;;4.93;71.23;103610.06;5031555;28;47563;-81
2022/01/13 03:40:51;;;;;;;;;15.67;12.33;;;;;4.83;71.71;103593.44;5012966;28;47998;-81
2022/01/13 03:43:17;;;;;;;;;14.33;11.33;;;;;4.83;72.08;103588.00;5036540;28;45903;-79
2022/01/13 03:45:46;;;;;;;;;13.67;12.33;;;;;4.90;72.53;103608.41;5031630;28;45387;-78
2022/01/13 03:48:13;;;;;;;;;10.67;8.67;;;;;4.88;71.41;103601.31;5030771;28;47361;-81
2022/01/13 03:50:43;;;;;;;;;17.25;13.25;;;;;4.81;71.60;103597.25;5033611;28;45917;-80
2022/01/13 03:53:47;;;;;;;;;13.33;9.00;;;;;4.93;72.37;103607.31;5034877;28;45418;-82
2022/01/13 03:56:50;;;;;;;;;11.00;8.75;;;;;4.89;71.60;103603.91;5036014;28;45883;-80
2022/01/13 03:59:27;;;;;;;;;9.67;9.67;;;;;4.86;71.30;103606.84;5033454;28;46214;-80
2022/01/13 04:01:58;;;;;;;;;7.67;7.67;;;;;4.83;72.09;103604.31;5033434;28;45748;-81
2022/01/13 04:04:24;;;;;;;;;11.33;10.67;;;;;4.80;70.92;103603.66;5033709;28;45526;-81
2022/01/13 04:06:49;;;;;;;;;10.67;8.67;;;;;4.78;71.04;103610.06;5033336;28;45527;-80
2022/01/13 04:09:29;;;;;;;;;9.75;8.75;;;;;4.77;71.13;103619.22;5014662;28;46071;-80
2022/01/13 04:11:56;;;;;;;;;12.25;10.00;;;;;4.69;71.33;103604.38;5033216;28;45636;-79
2022/01/13 04:14:29;;;;;;;;;13.67;9.33;;;;;4.73;71.15;103619.50;5012186;28;45502;-78
2022/01/13 04:16:55;;;;;;;;;13.33;10.33;;;;;4.70;71.99;103619.69;5013937;28;45778;-80
2022/01/13 04:19:20;;;;;;;;;10.00;8.75;;;;;4.69;71.65;103623.41;5032999;28;45566;-80
2022/01/13 04:21:46;;;;;;;;;8.25;8.00;;;;;4.63;72.12;103613.78;5036432;28;46022;-80
2022/01/13 04:24:13;;;;;;;;;9.75;7.50;;;;;4.61;72.24;103618.47;5035315;28;45747;-81
2022/01/13 04:26:42;;;;;;;;;11.00;9.00;;;;;4.47;71.85;103591.28;5020329;28;45081;-81
2022/01/13 04:29:36;;;;;;;;;11.67;8.67;;;;;4.55;71.54;103606.13;5034939;28;45408;-81
2022/01/13 04:35:20;;;;;;;;;9.50;9.50;;;;;4.30;71.96;103576.06;4995645;28;45918;-80
2022/01/13 04:37:47;;;;;;;;;9.00;7.67;;;;;4.47;72.47;103594.00;5012639;28;46007;-81
2022/01/13 04:40:13;;;;;;;;;12.00;9.00;;;;;4.51;71.87;103598.28;5015243;28;46742;-80
2022/01/13 04:42:42;;;;;;;;;11.33;8.67;;;;;4.37;71.87;103586.44;5031025;28;46881;-79
2022/01/13 04:45:08;;;;;;;;;10.00;9.00;;;;;4.48;71.63;103593.03;5030924;28;45456;-84
2022/01/13 04:47:34;;;;;;;;;8.67;8.67;;;;;4.49;72.24;103600.19;5053258;28;45413;-80
2022/01/13 04:49:59;;;;;;;;;10.00;7.75;;;;;4.30;72.70;103571.50;5052059;28;45618;-80
2022/01/13 04:52:25;;;;;;;;;13.67;9.33;;;;;4.41;71.74;103593.41;5034326;28;48064;-82
2022/01/13 04:54:50;;;;;;;;;10.33;9.33;;;;;4.44;72.94;103596.91;5055759;28;45308;-82
2022/01/13 04:57:17;;;;;;;;;10.00;7.33;;;;;4.21;72.35;103569.38;5049894;28;45555;-80
2022/01/13 04:59:43;;;;;;;;;10.33;7.00;;;;;4.31;72.56;103589.56;5037895;28;45458;-80
2022/01/13 05:02:09;;;;;;;;;10.00;10.00;;;;;4.39;72.37;103603.50;5032114;28;46977;-80
2022/01/13 05:04:35;;;;;;;;;9.00;8.00;;;;;4.31;72.11;103597.72;5032769;28;45714;-83
2022/01/13 05:07:00;;;;;;;;;21.00;18.00;;;;;4.33;72.06;103603.91;5032577;28;46055;-82
2022/01/13 05:09:26;;;;;;;;;10.00;8.33;;;;;4.32;72.03;103610.28;5031730;28;45985;-84
2022/01/13 05:11:51;;;;;;;;;11.33;9.33;;;;;4.28;72.17;103603.34;5019911;28;46273;-83
2022/01/13 05:14:17;;;;;;;;;13.33;10.67;;;;;4.20;73.11;103601.06;5022254;28;46035;-84
2022/01/13 05:19:23;;;;;;;;;12.33;9.33;;;;;4.19;73.06;103574.00;5042483;28;45809;-82
2022/01/13 05:24:20;;;;;;;;;10.00;8.33;;;;;4.36;71.36;103606.41;5041554;28;45830;-81
2022/01/13 05:26:45;;;;;;;;;12.00;9.33;;;;;4.07;72.54;103575.66;5044009;28;45484;-79
2022/01/13 05:29:16;;;;;;;;;11.33;9.67;;;;;4.17;73.28;103592.25;5043716;28;45537;-78
2022/01/13 05:31:41;;;;;;;;;11.67;9.00;;;;;4.30;72.53;103617.69;5044565;28;45631;-80
2022/01/13 05:34:07;;;;;;;;;15.50;14.50;;;;;4.27;73.05;103612.44;5042513;28;45824;-80
2022/01/13 05:36:32;;;;;;;;;16.75;12.00;;;;;4.21;72.16;103604.69;5054708;28;45331;-79
2022/01/13 05:38:58;;;;;;;;;17.75;13.25;;;;;4.27;72.49;103609.72;5043753;28;46404;-79
2022/01/13 05:41:23;;;;;;;;;12.00;9.50;;;;;4.26;72.07;103598.97;5048475;28;46094;-80
2022/01/13 05:43:49;;;;;;;;;12.00;8.75;;;;;4.14;73.01;103589.72;5053880;28;45551;-77
2022/01/13 05:46:14;;;;;;;;;14.25;10.00;;;;;4.22;72.74;103598.25;5032342;28;45306;-78
2022/01/13 05:48:39;;;;;;;;;20.50;14.00;;;;;4.22;73.07;103595.53;5045640;28;45975;-77
2022/01/13 05:51:05;;;;;;;;;13.33;13.00;;;;;4.23;71.94;103591.88;5047270;28;46165;-73
2022/01/13 05:53:30;;;;;;;;;23.50;20.25;;;;;4.23;72.03;103594.59;5039237;28;45876;-75
2022/01/13 05:55:56;;;;;;;;;13.50;10.00;;;;;4.29;72.81;103602.34;5031782;28;45803;-72
2022/01/13 05:58:21;;;;;;;;;18.25;10.25;;;;;4.31;72.29;103594.09;5033500;28;45699;-74
2022/01/13 06:00:47;;;;;;;;;14.25;10.00;;;;;4.26;73.29;103569.94;5030299;28;46010;-76
2022/01/13 06:03:12;;;;;;;;;10.00;8.00;;;;;4.32;72.25;103579.53;5038003;28;45396;-77
2022/01/13 06:05:37;;;;;;;;;14.00;10.67;;;;;4.31;73.71;103581.41;5035212;28;46219;-73
2022/01/13 06:08:04;;;;;;;;;17.25;11.75;;;;;4.38;72.65;103596.31;5031050;28;45736;-83
2022/01/13 06:10:30;;;;;;;;;14.33;11.67;;;;;4.41;72.64;103592.53;5044870;28;47074;-81
2022/01/13 06:12:55;;;;;;;;;16.00;12.75;;;;;4.31;72.01;103578.69;5035598;28;45491;-81
2022/01/13 06:15:24;;;;;;;;;13.67;10.67;;;;;4.39;72.68;103599.94;5037794;28;45824;-80
2022/01/13 06:17:51;;;;;;;;;12.50;10.25;;;;;4.38;72.54;103601.75;5018485;28;46655;-81
2022/01/13 06:20:19;;;;;;;;;13.67;11.33;;;;;4.40;72.37;103612.53;5043919;28;46658;-82
2022/01/13 06:22:47;;;;;;;;;13.33;10.33;;;;;4.43;72.25;103604.19;5047459;28;45711;-79
2022/01/13 06:25:14;;;;;;;;;15.00;11.25;;;;;4.47;72.46;103602.16;5053603;28;45692;-83
2022/01/13 06:27:40;;;;;;;;;15.25;13.25;;;;;4.50;72.16;103607.38;5037337;28;46113;-81
2022/01/13 06:30:10;;;;;;;;;10.67;9.67;;;;;4.49;71.77;103602.91;5052054;28;46038;-84
2022/01/13 06:32:38;;;;;;;;;12.33;9.67;;;;;4.55;72.76;103605.25;5034741;28;45684;-79
2022/01/13 06:35:04;;;;;;;;;20.25;17.00;;;;;4.54;72.79;103598.94;5030919;28;45583;-79
2022/01/13 06:37:30;;;;;;;;;14.00;12.50;;;;;4.57;72.45;103603.31;5031341;28;45428;-79
2022/01/13 06:39:56;;;;;;;;;11.00;9.33;;;;;4.54;71.71;103609.81;5012774;28;47190;-79
2022/01/13 06:42:21;;;;;;;;;23.50;15.75;;;;;4.52;71.83;103605.44;5034653;28;45353;-79
2022/01/13 06:44:50;;;;;;;;;16.00;13.00;;;;;4.52;71.92;103605.44;5029808;28;45888;-80
2022/01/13 06:47:15;;;;;;;;;12.33;9.33;;;;;4.54;71.46;103603.50;5048902;28;45476;-79
2022/01/13 06:49:40;;;;;;;;;11.67;8.67;;;;;4.48;72.20;103601.19;5029479;28;47685;-79
2022/01/13 06:52:07;;;;;;;;;10.00;10.00;;;;;4.50;71.29;103601.97;5045761;28;45565;-81
2022/01/13 06:54:32;;;;;;;;;16.25;11.50;;;;;4.50;71.25;103607.38;5018975;28;45871;-79
2022/01/13 06:56:58;;;;;;;;;14.00;10.00;;;;;4.50;72.39;103607.38;5040691;28;45518;-81
2022/01/13 06:59:23;;;;;;;;;13.33;11.33;;;;;4.51;72.64;103604.56;5045685;28;45964;-80
2022/01/13 07:01:49;;;;;;;;;17.33;15.00;;;;;4.52;71.96;103610.88;5041498;28;45530;-80
2022/01/13 07:04:15;;;;;;;;;16.33;12.33;;;;;4.53;72.91;103618.06;5044880;28;45788;-81
2022/01/13 07:06:43;;;;;;;;;19.50;14.25;;;;;4.50;72.64;103602.81;5046865;28;46342;-79
2022/01/13 07:09:14;;;;;;;;;16.50;15.00;;;;;4.54;73.02;103609.81;5031906;28;46582;-78
2022/01/13 07:11:41;;;;;;;;;16.75;15.25;;;;;4.54;72.23;103600.78;5042837;28;45951;-80
2022/01/13 07:14:07;;;;;;;;;13.67;10.33;;;;;4.59;72.61;103609.50;5047418;28;45652;-79
2022/01/13 07:16:34;;;;;;;;;19.33;15.67;;;;;4.63;72.51;103610.22;5043642;28;45817;-79
2022/01/13 07:19:01;;;;;;;;;18.00;15.25;;;;;4.55;72.24;103597.09;5046141;28;46405;-78
2022/01/13 07:21:27;;;;;;;;;15.50;12.25;;;;;4.63;72.18;103611.06;5047501;28;45569;-78
2022/01/13 07:23:54;;;;;;;;;16.00;12.00;;;;;4.67;72.20;103612.63;5049717;28;46086;-78
2022/01/13 07:26:19;;;;;;;;;13.33;11.67;;;;;4.68;70.67;103614.34;5050203;28;45646;-78
2022/01/13 07:28:45;;;;;;;;;11.67;10.00;;;;;4.72;71.43;103620.47;5049303;28;45801;-79
2022/01/13 07:31:14;;;;;;;;;15.50;10.00;;;;;4.71;70.93;103616.88;5050560;28;45904;-78
2022/01/13 07:33:40;;;;;;;;;14.75;12.00;;;;;4.71;71.29;103622.31;5050909;28;45859;-78
2022/01/13 07:36:05;;;;;;;;;15.25;10.50;;;;;4.70;71.65;103619.69;5053934;28;46360;-78
2022/01/13 07:38:30;;;;;;;;;9.75;9.75;;;;;4.70;71.22;103609.72;5040340;28;46847;-78
2022/01/13 07:40:56;;;;;;;;;15.00;11.50;;;;;4.76;70.75;103627.44;5046313;28;45553;-78
2022/01/13 07:43:23;;;;;;;;;10.33;10.33;;;;;4.76;70.95;103611.13;5048307;28;45797;-80
2022/01/13 07:45:50;;;;;;;;;14.00;9.00;;;;;4.75;71.11;103623.88;5048169;28;46358;-78
2022/01/13 07:48:16;;;;;;;;;14.00;11.00;;;;;4.77;71.33;103623.75;5040892;28;45817;-77
2022/01/13 07:50:43;;;;;;;;;12.75;9.75;;;;;4.78;71.09;103607.34;5038931;28;45798;-79
2022/01/13 07:53:09;;;;;;;;;15.00;8.67;;;;;4.86;70.49;103614.13;5047619;28;45961;-78
2022/01/13 07:55:34;;;;;;;;;12.50;10.75;;;;;4.87;70.84;103610.47;5042323;28;45998;-80
2022/01/13 07:58:00;;;;;;;;;14.67;9.67;;;;;4.81;70.32;103595.41;5047945;28;45780;-78
2022/01/13 08:00:25;;;;;;;;;9.67;9.67;;;;;4.88;71.08;103609.47;5050070;28;45728;-78
2022/01/13 08:02:51;;;;;;;;;12.33;10.67;;;;;4.89;70.43;103609.34;5050578;28;45892;-79
2022/01/13 08:05:16;;;;;;;;;14.67;12.00;;;;;4.91;70.16;103607.44;5052455;28;45707;-80
2022/01/13 08:07:42;;;;;;;;;13.75;9.75;;;;;4.94;70.28;103600.94;5047945;28;48006;-80
2022/01/13 08:10:08;;;;;;;;;17.00;14.67;;;;;4.97;70.23;103599.81;5050721;28;45602;-76
2022/01/13 08:12:34;;;;;;;;;14.67;12.67;;;;;4.99;71.22;103597.91;5050402;28;46769;-82
2022/01/13 08:14:59;;;;;;;;;13.00;13.00;;;;;5.00;71.11;103597.81;5047157;28;45593;-77
2022/01/13 08:20:09;;;;;;;;;17.67;12.00;;;;;5.01;70.21;103599.53;5049088;28;45783;-78
2022/01/13 08:22:36;;;;;;;;;14.00;9.00;;;;;5.07;70.55;103604.56;5048990;28;45569;-82
2022/01/13 08:25:01;;;;;;;;;16.00;10.50;;;;;5.11;70.32;103607.97;5050867;28;45612;-79
2022/01/13 08:27:27;;;;;;;;;15.50;12.50;;;;;5.13;69.89;103604.16;5043793;28;45730;-78
2022/01/13 08:29:56;;;;;;;;;12.33;11.00;;;;;5.22;70.47;103604.50;5046231;28;45525;-79
2022/01/13 08:32:21;;;;;;;;;15.67;13.67;;;;;5.29;69.77;103603.13;5030400;28;45537;-78
2022/01/13 08:34:47;;;;;;;;;12.67;9.00;;;;;5.34;69.16;103608.25;5050405;28;45815;-79
2022/01/13 08:37:12;;;;;;;;;19.67;10.67;;;;;5.34;69.89;103609.13;5049960;28;45790;-77
2022/01/13 08:39:45;;;;;;;;;16.33;13.67;;;;;5.34;69.75;103608.25;5048546;28;45704;-76
2022/01/13 08:42:12;;;;;;;;;16.75;16.75;;;;;5.33;69.71;103606.50;5052709;28;45481;-78
2022/01/13 08:44:39;;;;;;;;;13.67;11.00;;;;;5.34;69.71;103603.69;5048386;28;45572;-78
2022/01/13 08:47:05;;;;;;;;;15.67;14.00;;;;;5.37;69.39;103613.50;5042466;28;46131;-78
2022/01/13 08:49:30;;;;;;;;;17.50;13.25;;;;;5.41;69.80;103607.75;5048207;28;45778;-78
2022/01/13 08:51:56;;;;;;;;;14.50;10.50;;;;;5.46;69.09;103611.03;5048559;28;45494;-75
2022/01/13 08:54:22;;;;;;;;;17.00;10.33;;;;;5.46;68.43;103602.88;5049551;28;45801;-80
2022/01/13 08:56:48;;;;;;;;;15.00;14.00;;;;;5.47;68.40;103612.75;5049589;28;47023;-78
2022/01/13 08:59:14;;;;;;;;;17.67;14.00;;;;;5.46;68.69;103613.75;5043684;28;45608;-77
2022/01/13 09:01:39;;;;;;;;;14.00;11.67;;;;;5.38;68.24;103601.66;5050288;28;45759;-78
2022/01/13 09:04:05;;;;;;;;;12.00;11.00;;;;;5.41;67.55;103615.91;5049419;28;45850;-76
2022/01/13 09:06:31;;;;;;;;;15.67;10.33;;;;;5.43;68.24;103622.13;5048832;28;45537;-77
2022/01/13 09:08:56;;;;;;;;;20.00;12.33;;;;;5.36;68.09;103612.63;5044396;28;45817;-79
2022/01/13 09:11:22;;;;;;;;;13.75;12.25;;;;;5.39;67.99;103615.16;5039527;28;45898;-76
2022/01/13 09:13:55;;;;;;;;;14.33;10.00;;;;;5.37;68.55;103614.34;5049844;28;45587;-77
2022/01/13 09:16:21;;;;;;;;;16.67;13.33;;;;;5.19;68.52;103594.69;5031638;28;46097;-76
2022/01/13 09:21:24;;;;;;;;;19.67;16.33;;;;;5.29;68.01;103620.31;5038932;28;47909;-78
2022/01/13 09:23:50;;;;;;;;;17.75;12.00;;;;;5.35;68.33;103637.22;5044834;28;45575;-77
2022/01/13 09:26:16;;;;;;;;;18.00;11.75;;;;;5.32;68.21;103643.75;5038804;28;47517;-78
2022/01/13 09:28:41;;;;;;;;;17.33;14.33;;;;;5.20;67.93;103630.97;5060348;28;45511;-77
2022/01/13 09:31:07;;;;;;;;;16.33;14.00;;;;;5.22;69.17;103637.16;5049611;28;45387;-74
2022/01/13 09:33:34;;;;;;;;;17.50;17.00;;;;;5.26;68.02;103644.16;5045439;28;45726;-76
2022/01/13 09:35:59;;;;;;;;;20.33;15.67;;;;;5.32;68.20;103651.03;5049631;28;46276;-77
2022/01/13 09:38:28;;;;;;;;;15.00;12.00;;;;;5.25;68.86;103647.84;5050305;28;45581;-77
2022/01/13 09:40:54;;;;;;;;;20.00;16.25;;;;;5.30;68.68;103652.00;5051302;28;45903;-76
2022/01/13 09:43:27;;;;;;;;;20.00;15.00;;;;;5.25;68.27;103651.41;5051597;28;45388;-78
2022/01/13 09:45:55;;;;;;;;;15.25;14.25;;;;;5.27;68.23;103662.25;5049957;28;45673;-77
2022/01/13 09:48:20;;;;;;;;;17.67;12.00;;;;;5.26;67.80;103655.91;5050869;28;45988;-77
2022/01/13 09:50:48;;;;;;;;;17.50;13.50;;;;;5.29;68.02;103655.69;5032612;28;45788;-74
2022/01/13 09:53:15;;;;;;;;;23.25;17.75;;;;;5.32;67.68;103661.94;5040265;28;45532;-75
2022/01/13 09:55:43;;;;;;;;;17.67;14.67;;;;;5.32;68.74;103659.22;5047016;28;45833;-76
2022/01/13 09:58:12;;;;;;;;;17.00;15.75;;;;;5.31;67.45;103663.75;5051128;28;45430;-78
2022/01/13 10:00:43;;;;;;;;;19.00;17.00;;;;;5.25;67.40;103656.00;5031986;28;45504;-77
2022/01/13 10:03:22;;;;;;;;;13.75;11.50;;;;;5.27;67.67;103662.25;5029907;28;45889;-75
2022/01/13 10:05:57;;;;;;;;;20.33;15.67;;;;;5.26;67.76;103655.03;5030288;28;46345;-76
2022/01/13 10:08:40;;;;;;;;;17.67;11.67;;;;;5.26;67.13;103655.91;5040540;28;45463;-75
2022/01/13 10:11:24;;;;;;;;;16.00;12.67;;;;;5.29;67.39;103661.13;5043023;28;45783;-75
2022/01/13 10:14:07;;;;;;;;;24.00;14.67;;;;;5.27;67.35;103665.81;5029085;28;45949;-75
2022/01/13 10:16:33;;;;;;;;;15.67;15.67;;;;;5.28;67.21;103669.41;5049377;28;45927;-78
2022/01/13 10:18:59;;;;;;;;;24.50;17.75;;;;;5.25;67.67;103658.72;5049056;28;45867;-75
2022/01/13 10:21:25;;;;;;;;;15.67;15.33;;;;;5.23;67.72;103656.09;5048766;28;45492;-76
2022/01/13 10:24:13;;;;;;;;;15.00;11.67;;;;;5.33;67.08;103667.28;5032817;28;45611;-78
2022/01/13 10:26:55;;;;;;;;;16.33;15.33;;;;;5.34;67.08;103663.53;5047819;28;45808;-76
2022/01/13 10:29:35;;;;;;;;;17.67;14.33;;;;;5.36;67.18;103656.19;5045744;28;45524;-75
2022/01/13 10:32:01;;;;;;;;;18.75;15.75;;;;;5.36;67.30;103661.63;5045927;28;45642;-76
2022/01/13 10:34:26;;;;;;;;;16.33;14.00;;;;;5.37;67.47;103652.47;5048752;28;45811;-77
2022/01/13 10:37:01;;;;;;;;;10.00;2.67;;;;;5.39;67.48;103655.97;5048051;28;47412;-77
2022/01/13 10:39:53;;;;;;;;;20.00;16.00;;;;;5.41;67.43;103643.13;5049729;28;45942;-78
2022/01/13 10:45:14;;;;;;;;;22.33;15.67;;;;;5.34;67.52;103625.44;5050079;28;45494;-76
2022/01/13 10:47:40;;;;;;;;;23.25;15.00;;;;;5.40;67.13;103641.38;5046421;28;46065;-80
2022/01/13 10:50:11;;;;;;;;;13.00;12.00;;;;;5.44;67.08;103645.63;5034443;28;45883;-80
2022/01/13 10:52:38;;;;;;;;;23.33;16.00;;;;;5.56;66.79;103651.25;5041847;28;45775;-78
2022/01/13 10:55:12;;;;;;;;;25.00;12.33;;;;;5.58;66.39;103655.56;5038843;28;45475;-82
2022/01/13 10:57:41;;;;;;;;;21.67;17.00;;;;;5.63;67.14;103652.56;5045874;28;45919;-81
2022/01/13 11:00:28;;;;;;;;;21.00;18.75;;;;;5.69;66.71;103646.69;5051485;28;45780;-83
2022/01/13 11:03:07;;;;;;;;;21.50;19.50;;;;;5.71;66.56;103638.44;5039582;28;46221;-82
2022/01/13 11:05:38;;;;;;;;;21.00;17.75;;;;;5.70;66.28;103632.09;5051348;28;45575;-83
2022/01/13 11:08:06;;;;;;;;;20.33;18.00;;;;;5.78;66.20;103646.06;5042521;28;45422;-82
2022/01/13 11:10:33;;;;;;;;;19.00;16.67;;;;;5.75;65.81;103638.09;5045134;28;45779;-78
2022/01/13 11:13:01;;;;;;;;;24.67;18.67;;;;;5.76;66.51;103634.41;5047346;28;45828;-79
2022/01/13 11:15:27;;;;;;;;;17.33;16.33;;;;;5.68;66.06;103631.34;5053642;28;46392;-78
2022/01/13 11:17:58;;;;;;;;;19.25;17.50;;;;;5.75;66.36;103648.09;5047496;28;45896;-80
2022/01/13 11:20:25;;;;;;;;;14.33;14.33;;;;;5.74;66.32;103644.53;5050566;28;45717;-80
2022/01/13 11:22:53;;;;;;;;;19.67;18.00;;;;;5.69;65.95;103619.47;5053965;28;45931;-81
2022/01/13 11:25:23;;;;;;;;;28.67;19.67;;;;;5.62;66.22;103608.13;5028667;28;45977;-82
2022/01/13 11:27:53;;;;;;;;;21.75;18.25;;;;;5.73;65.87;103626.44;5054554;28;48311;-78
2022/01/13 11:30:27;;;;;;;;;26.25;18.50;;;;;5.77;66.11;103629.84;5058438;28;45446;-77
2022/01/13 11:32:54;;;;;;;;;22.33;19.00;;;;;5.79;66.09;103633.31;5048158;28;46505;-79
2022/01/13 11:35:30;;;;;;;;;23.33;21.00;;;;;5.82;66.28;103633.09;5015537;28;46802;-74
2022/01/13 11:37:57;;;;;;;;;22.00;18.75;;;;;5.75;65.91;103605.44;5045448;28;45814;-77
2022/01/13 11:40:25;;;;;;;;;24.75;19.75;;;;;5.90;65.61;103617.13;5053170;28;45743;-77
2022/01/13 11:42:51;;;;;;;;;24.75;18.50;;;;;5.89;65.56;103609.06;5044663;28;45593;-76
2022/01/13 11:45:27;;;;;;;;;25.75;21.00;;;;;5.83;65.54;103611.19;5044967;28;45870;-78
2022/01/13 11:48:17;;;;;;;;;26.00;21.25;;;;;5.90;65.07;103600.78;5016246;28;46875;-75
2022/01/13 11:50:48;;;;;;;;;29.75;25.00;;;;;5.94;65.98;103593.25;5040700;28;45878;-75
2022/01/13 11:53:21;;;;;;;;;26.50;22.50;;;;;5.99;65.42;103591.13;5043824;28;45885;-78
2022/01/13 11:55:54;;;;;;;;;25.25;22.50;;;;;6.08;64.99;103595.91;5047266;28;45850;-79